Airport View

Enter AWOS ICAO identifier for current METAR.

ex. KFNL

KIOB 171205Z AUTO 00000KT 10SM CLR M05/M06 A3012 RMK AO2

17 Nov 2019 12:10

Frequency: 120.675

Phone: 859-498-7001

Other Area AWOS: KSYM - KLEX - KRGA - KFGX

TAF KLEX 171121Z 1712/1812 06003KT 6SM BR FEW250 FM171330 17004KT P6SM FEW250 FM171900 VRB03KT P6SM BKN180 FM180400 20005KT P6SM BKN180